Constantine, Constantine Mohamed Boudiaf International Airport (DABC)

NameConstantine Mohamed Boudiaf International Airport
CityConstantine
CountryAlgeria
ICAODABC
IATACZL
Altitude706 m
CoordinatesGoogle Map
Live Air TrafficLiveATC.net
METARDABC 251700Z 10003KT 9999 SCT033 SCT080 18/13 Q1011
2020-04-25 17:00:00 Wind: East (100°) 1.54 m/s - Visibility: > 10000 m - Temperature: 18 °C - Dew point: 13 °C - Humidity: 72.7% - Pressure: 1011 hPa

Sorry, no flights used the airport in this database.